sensor_id;sensor_type;location;lat;lon;timestamp;pressure;altitude;pressure_sealevel;temperature;humidity
73551;BME280;61816;53.582;10.096;2023-04-21T00:01:48;54378.97;;;-144.73;100.00
73551;BME280;61816;53.582;10.096;2023-04-21T00:04:14;54370.75;;;-144.73;100.00
73551;BME280;61816;53.582;10.096;2023-04-21T00:06:39;54387.19;;;-144.73;100.00
73551;BME280;61816;53.582;10.096;2023-04-21T00:09:07;54391.28;;;-144.73;100.00
73551;BME280;61816;53.582;10.096;2023-04-21T00:11:32;54391.28;;;-144.73;100.00
73551;BME280;61816;53.582;10.096;2023-04-21T00:13:58;54438.50;;;-144.73;100.00
73551;BME280;61816;53.582;10.096;2023-04-21T00:16:23;54374.84;;;-144.73;100.00
73551;BME280;61816;53.582;10.096;2023-04-21T00:18:49;54407.69;;;-144.73;100.00
73551;BME280;61816;53.582;10.096;2023-04-21T00:21:14;54378.97;;;-144.73;100.00
73551;BME280;61816;53.582;10.096;2023-04-21T00:23:40;54407.69;;;-144.73;100.00
73551;BME280;61816;53.582;10.096;2023-04-21T00:26:06;54407.69;;;-144.73;100.00
73551;BME280;61816;53.582;10.096;2023-04-21T00:28:31;54387.19;;;-144.73;100.00
73551;BME280;61816;53.582;10.096;2023-04-21T00:30:56;54385.13;;;-144.73;100.00
73551;BME280;61816;53.582;10.096;2023-04-21T00:33:22;54407.69;;;-144.73;100.00
73551;BME280;61816;53.582;10.096;2023-04-21T00:35:47;54436.44;;;-144.73;100.00
73551;BME280;61816;53.582;10.096;2023-04-21T00:38:13;54391.28;;;-144.73;100.00
73551;BME280;61816;53.582;10.096;2023-04-21T00:40:38;54407.69;;;-144.73;100.00
73551;BME280;61816;53.582;10.096;2023-04-21T00:43:07;54420.00;;;-144.73;100.00
73551;BME280;61816;53.582;10.096;2023-04-21T00:45:32;54387.19;;;-144.73;100.00
73551;BME280;61816;53.582;10.096;2023-04-21T00:47:58;54407.69;;;-144.73;100.00
73551;BME280;61816;53.582;10.096;2023-04-21T00:50:23;54415.91;;;-144.73;100.00
73551;BME280;61816;53.582;10.096;2023-04-21T00:52:49;54420.00;;;-144.73;100.00
73551;BME280;61816;53.582;10.096;2023-04-21T00:55:15;54456.97;;;-144.73;100.00
73551;BME280;61816;53.582;10.096;2023-04-21T00:57:41;54417.97;;;-144.73;100.00
73551;BME280;61816;53.582;10.096;2023-04-21T01:00:06;54399.50;;;-144.73;100.00
73551;BME280;61816;53.582;10.096;2023-04-21T01:02:37;54399.50;;;-144.73;100.00
73551;BME280;61816;53.582;10.096;2023-04-21T01:05:04;54395.38;;;-144.73;100.00
73551;BME280;61816;53.582;10.096;2023-04-21T01:07:33;54411.81;;;-144.73;100.00
73551;BME280;61816;53.582;10.096;2023-04-21T01:09:59;54350.22;;;-144.73;100.00
73551;BME280;61816;53.582;10.096;2023-04-21T01:12:27;54428.22;;;-144.73;100.00
73551;BME280;61816;53.582;10.096;2023-04-21T01:14:52;54395.38;;;-144.73;100.00
73551;BME280;61816;53.582;10.096;2023-04-21T01:17:18;54411.81;;;-144.73;100.00
73551;BME280;61816;53.582;10.096;2023-04-21T01:19:43;54436.44;;;-144.73;100.00
73551;BME280;61816;53.582;10.096;2023-04-21T01:22:11;54407.69;;;-144.73;100.00
73551;BME280;61816;53.582;10.096;2023-04-21T01:24:39;54387.19;;;-144.73;100.00
73551;BME280;61816;53.582;10.096;2023-04-21T01:27:09;54368.69;;;-144.73;100.00
73551;BME280;61816;53.582;10.096;2023-04-21T01:29:35;54407.69;;;-144.73;100.00
73551;BME280;61816;53.582;10.096;2023-04-21T01:32:10;54415.91;;;-144.73;100.00
73551;BME280;61816;53.582;10.096;2023-04-21T01:34:37;54370.75;;;-144.73;100.00
73551;BME280;61816;53.582;10.096;2023-04-21T01:37:06;54411.81;;;-144.73;100.00
73551;BME280;61816;53.582;10.096;2023-04-21T01:39:32;54411.81;;;-144.73;100.00
73551;BME280;61816;53.582;10.096;2023-04-21T01:42:01;54395.38;;;-144.73;100.00
73551;BME280;61816;53.582;10.096;2023-04-21T01:44:26;54383.06;;;-144.73;100.00
73551;BME280;61816;53.582;10.096;2023-04-21T01:46:52;54395.38;;;-144.73;100.00
73551;BME280;61816;53.582;10.096;2023-04-21T01:49:17;54354.34;;;-144.73;100.00
73551;BME280;61816;53.582;10.096;2023-04-21T01:51:43;54387.19;;;-144.73;100.00
73551;BME280;61816;53.582;10.096;2023-04-21T01:54:08;54407.69;;;-144.73;100.00
73551;BME280;61816;53.582;10.096;2023-04-21T01:56:33;54395.38;;;-144.73;100.00
73551;BME280;61816;53.582;10.096;2023-04-21T01:58:59;54383.06;;;-144.73;100.00
73551;BME280;61816;53.582;10.096;2023-04-21T02:01:24;54420.00;;;-144.73;100.00
73551;BME280;61816;53.582;10.096;2023-04-21T02:03:49;54391.28;;;-144.73;100.00
73551;BME280;61816;53.582;10.096;2023-04-21T02:06:15;54422.06;;;-144.73;100.00
73551;BME280;61816;53.582;10.096;2023-04-21T02:08:42;54407.69;;;-144.73;100.00
73551;BME280;61816;53.582;10.096;2023-04-21T02:11:07;54444.66;;;-144.73;100.00
73551;BME280;61816;53.582;10.096;2023-04-21T02:13:32;54411.81;;;-144.73;100.00
73551;BME280;61816;53.582;10.096;2023-04-21T02:15:58;54362.53;;;-144.73;100.00
73551;BME280;61816;53.582;10.096;2023-04-21T02:18:23;54422.06;;;-144.73;100.00
73551;BME280;61816;53.582;10.096;2023-04-21T02:20:48;54395.38;;;-144.73;100.00
73551;BME280;61816;53.582;10.096;2023-04-21T02:23:14;54370.75;;;-144.73;100.00
73551;BME280;61816;53.582;10.096;2023-04-21T02:25:39;54399.50;;;-144.73;100.00
73551;BME280;61816;53.582;10.096;2023-04-21T02:28:04;54378.97;;;-144.73;100.00
73551;BME280;61816;53.582;10.096;2023-04-21T02:30:30;54444.66;;;-144.73;100.00
73551;BME280;61816;53.582;10.096;2023-04-21T02:32:55;54442.59;;;-144.73;100.00
73551;BME280;61816;53.582;10.096;2023-04-21T02:35:21;54374.84;;;-144.73;100.00
73551;BME280;61816;53.582;10.096;2023-04-21T02:37:46;54374.84;;;-144.73;100.00
73551;BME280;61816;53.582;10.096;2023-04-21T02:40:11;54381.00;;;-144.73;100.00
73551;BME280;61816;53.582;10.096;2023-04-21T02:42:37;54383.06;;;-144.73;100.00
73551;BME280;61816;53.582;10.096;2023-04-21T02:45:02;54397.44;;;-144.73;100.00
73551;BME280;61816;53.582;10.096;2023-04-21T02:47:28;54391.28;;;-144.73;100.00
73551;BME280;61816;53.582;10.096;2023-04-21T02:49:53;54407.69;;;-144.73;100.00
73551;BME280;61816;53.582;10.096;2023-04-21T02:52:18;54366.66;;;-144.73;100.00
73551;BME280;61816;53.582;10.096;2023-04-21T02:54:44;54368.69;;;-144.73;100.00
73551;BME280;61816;53.582;10.096;2023-04-21T02:57:09;54370.75;;;-144.73;100.00
73551;BME280;61816;53.582;10.096;2023-04-21T02:59:34;54428.22;;;-144.73;100.00
73551;BME280;61816;53.582;10.096;2023-04-21T03:02:00;54469.28;;;-144.73;100.00
73551;BME280;61816;53.582;10.096;2023-04-21T03:04:25;54411.81;;;-144.73;100.00
73551;BME280;61816;53.582;10.096;2023-04-21T03:06:51;54362.53;;;-144.73;100.00
73551;BME280;61816;53.582;10.096;2023-04-21T03:09:16;54395.38;;;-144.73;100.00
73551;BME280;61816;53.582;10.096;2023-04-21T03:11:42;54407.69;;;-144.73;100.00
73551;BME280;61816;53.582;10.096;2023-04-21T03:14:07;54407.69;;;-144.73;100.00
73551;BME280;61816;53.582;10.096;2023-04-21T03:16:32;54391.28;;;-144.73;100.00
73551;BME280;61816;53.582;10.096;2023-04-21T03:18:58;54391.28;;;-144.73;100.00
73551;BME280;61816;53.582;10.096;2023-04-21T03:21:23;54456.97;;;-144.73;100.00
73551;BME280;61816;53.582;10.096;2023-04-21T03:23:48;54411.81;;;-144.73;100.00
73551;BME280;61816;53.582;10.096;2023-04-21T03:26:14;54407.69;;;-144.73;100.00
73551;BME280;61816;53.582;10.096;2023-04-21T03:28:40;54407.69;;;-144.73;100.00
73551;BME280;61816;53.582;10.096;2023-04-21T03:31:06;54407.69;;;-144.73;100.00
73551;BME280;61816;53.582;10.096;2023-04-21T03:33:31;54415.91;;;-144.73;100.00
73551;BME280;61816;53.582;10.096;2023-04-21T03:35:56;54411.81;;;-144.73;100.00
73551;BME280;61816;53.582;10.096;2023-04-21T03:38:22;54411.81;;;-144.73;100.00
73551;BME280;61816;53.582;10.096;2023-04-21T03:40:47;54385.13;;;-144.73;100.00
73551;BME280;61816;53.582;10.096;2023-04-21T03:43:12;54383.06;;;-144.73;100.00
73551;BME280;61816;53.582;10.096;2023-04-21T03:45:38;54428.22;;;-144.73;100.00
73551;BME280;61816;53.582;10.096;2023-04-21T03:48:03;54415.91;;;-144.73;100.00
73551;BME280;61816;53.582;10.096;2023-04-21T03:50:29;54450.81;;;-144.73;100.00
73551;BME280;61816;53.582;10.096;2023-04-21T03:52:54;54399.50;;;-144.73;100.00
73551;BME280;61816;53.582;10.096;2023-04-21T03:55:20;54397.44;;;-144.73;100.00
73551;BME280;61816;53.582;10.096;2023-04-21T03:57:45;54417.97;;;-144.73;100.00
73551;BME280;61816;53.582;10.096;2023-04-21T04:00:11;54415.91;;;-144.73;100.00
73551;BME280;61816;53.582;10.096;2023-04-21T04:02:37;54358.44;;;-144.73;100.00
73551;BME280;61816;53.582;10.096;2023-04-21T04:05:03;54415.91;;;-144.73;100.00
73551;BME280;61816;53.582;10.096;2023-04-21T04:07:30;54411.81;;;-144.73;100.00
73551;BME280;61816;53.582;10.096;2023-04-21T04:09:56;54415.91;;;-144.73;100.00
73551;BME280;61816;53.582;10.096;2023-04-21T04:12:21;54428.22;;;-144.73;100.00
73551;BME280;61816;53.582;10.096;2023-04-21T04:14:46;54420.00;;;-144.73;100.00
73551;BME280;61816;53.582;10.096;2023-04-21T04:17:12;54395.38;;;-144.73;100.00
73551;BME280;61816;53.582;10.096;2023-04-21T04:19:37;54428.22;;;-144.73;100.00
73551;BME280;61816;53.582;10.096;2023-04-21T04:22:02;54411.81;;;-144.73;100.00
73551;BME280;61816;53.582;10.096;2023-04-21T04:24:28;54407.69;;;-144.73;100.00
73551;BME280;61816;53.582;10.096;2023-04-21T04:26:54;54387.19;;;-144.73;100.00
73551;BME280;61816;53.582;10.096;2023-04-21T04:29:20;54407.69;;;-144.73;100.00
73551;BME280;61816;53.582;10.096;2023-04-21T04:31:48;54407.69;;;-144.73;100.00
73551;BME280;61816;53.582;10.096;2023-04-21T04:34:13;54387.19;;;-144.73;100.00
73551;BME280;61816;53.582;10.096;2023-04-21T04:36:39;54432.31;;;-144.73;100.00
73551;BME280;61816;53.582;10.096;2023-04-21T04:39:06;54424.13;;;-144.73;100.00
73551;BME280;61816;53.582;10.096;2023-04-21T04:41:32;54436.44;;;-144.73;100.00
73551;BME280;61816;53.582;10.096;2023-04-21T04:43:58;54411.81;;;-144.73;100.00
73551;BME280;61816;53.582;10.096;2023-04-21T04:46:24;54446.69;;;-144.73;100.00
73551;BME280;61816;53.582;10.096;2023-04-21T04:48:50;54413.84;;;-144.73;100.00
73551;BME280;61816;53.582;10.096;2023-04-21T04:51:15;54391.28;;;-144.73;100.00
73551;BME280;61816;53.582;10.096;2023-04-21T04:53:41;54387.19;;;-144.73;100.00
73551;BME280;61816;53.582;10.096;2023-04-21T04:56:06;54448.75;;;-144.73;100.00
73551;BME280;61816;53.582;10.096;2023-04-21T04:58:32;54444.66;;;-144.73;100.00
73551;BME280;61816;53.582;10.096;2023-04-21T05:00:57;54411.81;;;-144.73;100.00
73551;BME280;61816;53.582;10.096;2023-04-21T05:03:22;54391.28;;;-144.73;100.00
73551;BME280;61816;53.582;10.096;2023-04-21T05:05:48;54424.13;;;-144.73;100.00
73551;BME280;61816;53.582;10.096;2023-04-21T05:08:13;54428.22;;;-144.73;100.00
73551;BME280;61816;53.582;10.096;2023-04-21T05:10:39;54446.69;;;-144.73;100.00
73551;BME280;61816;53.582;10.096;2023-04-21T05:13:04;54399.50;;;-144.73;100.00
73551;BME280;61816;53.582;10.096;2023-04-21T05:15:30;54415.91;;;-144.73;100.00
73551;BME280;61816;53.582;10.096;2023-04-21T05:17:56;54432.31;;;-144.73;100.00
73551;BME280;61816;53.582;10.096;2023-04-21T05:20:21;54387.19;;;-144.73;100.00
73551;BME280;61816;53.582;10.096;2023-04-21T05:22:47;54415.91;;;-144.73;100.00
73551;BME280;61816;53.582;10.096;2023-04-21T05:25:12;54407.69;;;-144.73;100.00
73551;BME280;61816;53.582;10.096;2023-04-21T05:27:41;54428.22;;;-144.73;100.00
73551;BME280;61816;53.582;10.096;2023-04-21T05:30:08;54391.28;;;-144.73;100.00
73551;BME280;61816;53.582;10.096;2023-04-21T05:32:33;54420.00;;;-144.73;100.00
73551;BME280;61816;53.582;10.096;2023-04-21T05:34:59;54456.97;;;-144.73;100.00
73551;BME280;61816;53.582;10.096;2023-04-21T05:37:25;54395.38;;;-144.73;100.00
73551;BME280;61816;53.582;10.096;2023-04-21T05:39:50;54438.50;;;-144.73;100.00
73551;BME280;61816;53.582;10.096;2023-04-21T05:42:16;54393.34;;;-144.73;100.00
73551;BME280;61816;53.582;10.096;2023-04-21T05:44:42;54428.22;;;-144.73;100.00
73551;BME280;61816;53.582;10.096;2023-04-21T05:47:07;54424.13;;;-144.73;100.00
73551;BME280;61816;53.582;10.096;2023-04-21T05:49:33;54415.91;;;-144.73;100.00
73551;BME280;61816;53.582;10.096;2023-04-21T05:51:58;54428.22;;;-144.73;100.00
73551;BME280;61816;53.582;10.096;2023-04-21T05:54:24;54387.19;;;-144.73;100.00
73551;BME280;61816;53.582;10.096;2023-04-21T05:56:49;54391.28;;;-144.73;100.00
73551;BME280;61816;53.582;10.096;2023-04-21T05:59:14;54407.69;;;-144.73;100.00
73551;BME280;61816;53.582;10.096;2023-04-21T06:01:40;54360.50;;;-144.73;100.00
73551;BME280;61816;53.582;10.096;2023-04-21T06:04:06;54428.22;;;-144.73;100.00
73551;BME280;61816;53.582;10.096;2023-04-21T06:06:31;54438.50;;;-144.73;100.00
73551;BME280;61816;53.582;10.096;2023-04-21T06:08:56;54428.22;;;-144.73;100.00
73551;BME280;61816;53.582;10.096;2023-04-21T06:11:22;54428.22;;;-144.73;100.00
73551;BME280;61816;53.582;10.096;2023-04-21T06:13:48;54432.31;;;-144.73;100.00
73551;BME280;61816;53.582;10.096;2023-04-21T06:16:14;54424.13;;;-144.73;100.00
73551;BME280;61816;53.582;10.096;2023-04-21T06:18:39;54432.31;;;-144.73;100.00
73551;BME280;61816;53.582;10.096;2023-04-21T06:21:04;54391.28;;;-144.73;100.00
73551;BME280;61816;53.582;10.096;2023-04-21T06:23:30;54411.81;;;-144.73;100.00
73551;BME280;61816;53.582;10.096;2023-04-21T06:26:05;54430.28;;;-144.73;100.00
73551;BME280;61816;53.582;10.096;2023-04-21T06:28:32;54424.13;;;-144.73;99.87
73551;BME280;61816;53.582;10.096;2023-04-21T06:31:01;54376.91;;;-144.73;99.75
73551;BME280;61816;53.582;10.096;2023-04-21T06:33:28;54424.13;;;-144.73;99.81
73551;BME280;61816;53.582;10.096;2023-04-21T06:35:54;54378.97;;;-144.73;98.89
73551;BME280;61816;53.582;10.096;2023-04-21T06:38:19;54374.84;;;-144.73;98.77
73551;BME280;61816;53.582;10.096;2023-04-21T06:40:45;54415.91;;;-144.73;98.34
73551;BME280;61816;53.582;10.096;2023-04-21T06:43:10;54422.06;;;-144.73;98.62
73551;BME280;61816;53.582;10.096;2023-04-21T06:45:35;54407.69;;;-144.73;97.66
73551;BME280;61816;53.582;10.096;2023-04-21T06:48:01;54422.06;;;-144.73;97.22
73551;BME280;61816;53.582;10.096;2023-04-21T06:50:26;54420.00;;;-144.73;97.27
73551;BME280;61816;53.582;10.096;2023-04-21T06:52:52;54444.66;;;-144.73;96.41
73551;BME280;61816;53.582;10.096;2023-04-21T06:55:17;54399.50;;;-144.73;95.95
73551;BME280;61816;53.582;10.096;2023-04-21T06:57:42;54422.06;;;-144.73;95.24
73551;BME280;61816;53.582;10.096;2023-04-21T07:00:08;54415.91;;;-144.73;95.36
73551;BME280;61816;53.582;10.096;2023-04-21T07:02:34;54391.28;;;-144.73;94.55
73551;BME280;61816;53.582;10.096;2023-04-21T07:04:59;54428.22;;;-144.73;93.97
73551;BME280;61816;53.582;10.096;2023-04-21T07:07:25;54456.97;;;-144.73;92.99
73551;BME280;61816;53.582;10.096;2023-04-21T07:09:50;54391.28;;;-144.73;91.92
73551;BME280;61816;53.582;10.096;2023-04-21T07:12:15;54407.69;;;-144.73;92.55
73551;BME280;61816;53.582;10.096;2023-04-21T07:14:41;54407.69;;;-144.73;91.76
73551;BME280;61816;53.582;10.096;2023-04-21T07:17:06;54391.28;;;-144.73;90.63
73551;BME280;61816;53.582;10.096;2023-04-21T07:19:32;54450.81;;;-144.73;91.64
73551;BME280;61816;53.582;10.096;2023-04-21T07:21:57;54391.28;;;-144.73;91.23
73551;BME280;61816;53.582;10.096;2023-04-21T07:24:23;54383.06;;;-144.73;90.80
73551;BME280;61816;53.582;10.096;2023-04-21T07:26:48;54424.13;;;-144.73;90.39
73551;BME280;61816;53.582;10.096;2023-04-21T07:29:14;54378.97;;;-144.73;90.11
73551;BME280;61816;53.582;10.096;2023-04-21T07:31:39;54446.69;;;-144.73;89.74
73551;BME280;61816;53.582;10.096;2023-04-21T07:34:04;54395.38;;;-144.73;86.99
73551;BME280;61816;53.582;10.096;2023-04-21T07:36:30;54399.50;;;-144.73;86.28
73551;BME280;61816;53.582;10.096;2023-04-21T07:38:55;54383.06;;;-144.73;86.38
73551;BME280;61816;53.582;10.096;2023-04-21T07:41:21;54422.06;;;-144.73;84.85
73551;BME280;61816;53.582;10.096;2023-04-21T07:43:46;54391.28;;;-144.73;84.30
73551;BME280;61816;53.582;10.096;2023-04-21T07:46:12;54407.69;;;-144.73;82.95
73551;BME280;61816;53.582;10.096;2023-04-21T07:48:38;54387.19;;;-144.73;83.13
73551;BME280;61816;53.582;10.096;2023-04-21T07:51:04;54387.19;;;-144.73;82.48
73551;BME280;61816;53.582;10.096;2023-04-21T07:53:29;54366.66;;;-144.73;81.88
73551;BME280;61816;53.582;10.096;2023-04-21T07:55:55;54374.84;;;-144.73;81.03
73551;BME280;61816;53.582;10.096;2023-04-21T07:58:21;54364.59;;;-144.73;78.71
73551;BME280;61816;53.582;10.096;2023-04-21T08:00:47;54378.97;;;-144.73;79.60
73551;BME280;61816;53.582;10.096;2023-04-21T08:03:13;54407.69;;;-144.73;78.25
73551;BME280;61816;53.582;10.096;2023-04-21T08:05:39;54346.13;;;-144.73;77.56
73551;BME280;61816;53.582;10.096;2023-04-21T08:08:04;54432.31;;;-144.73;77.32
73551;BME280;61816;53.582;10.096;2023-04-21T08:10:30;54366.66;;;-144.73;76.10
73551;BME280;61816;53.582;10.096;2023-04-21T08:12:55;54383.06;;;-144.73;75.36
73551;BME280;61816;53.582;10.096;2023-04-21T08:15:21;54362.53;;;-144.73;76.50
73551;BME280;61816;53.582;10.096;2023-04-21T08:17:46;54436.44;;;-144.73;76.81
73551;BME280;61816;53.582;10.096;2023-04-21T08:20:11;54364.59;;;-144.73;76.18
73551;BME280;61816;53.582;10.096;2023-04-21T08:22:37;54391.28;;;-144.73;74.94
73551;BME280;61816;53.582;10.096;2023-04-21T08:25:04;54383.06;;;-144.73;75.86
73551;BME280;61816;53.582;10.096;2023-04-21T08:27:29;54370.75;;;-144.73;74.72
73551;BME280;61816;53.582;10.096;2023-04-21T08:29:55;54374.84;;;-144.73;75.09
73551;BME280;61816;53.582;10.096;2023-04-21T08:32:20;54358.44;;;-144.73;74.10
73551;BME280;61816;53.582;10.096;2023-04-21T08:34:52;54383.06;;;-144.73;73.91
73551;BME280;61816;53.582;10.096;2023-04-21T08:37:18;54387.19;;;-144.73;73.07
73551;BME280;61816;53.582;10.096;2023-04-21T08:39:44;54420.00;;;-144.73;73.24
73551;BME280;61816;53.582;10.096;2023-04-21T08:42:12;54358.44;;;-144.73;72.58
73551;BME280;61816;53.582;10.096;2023-04-21T08:44:38;54346.13;;;-144.73;72.47
73551;BME280;61816;53.582;10.096;2023-04-21T08:47:11;54387.19;;;-144.73;69.46
73551;BME280;61816;53.582;10.096;2023-04-21T08:49:37;54378.97;;;-144.73;70.20
73551;BME280;61816;53.582;10.096;2023-04-21T08:52:03;54370.75;;;-144.73;68.22
73551;BME280;61816;53.582;10.096;2023-04-21T08:54:28;54374.84;;;-144.73;68.91
73551;BME280;61816;53.582;10.096;2023-04-21T08:56:55;54378.97;;;-144.73;68.66
73551;BME280;61816;53.582;10.096;2023-04-21T08:59:21;54415.91;;;-144.73;68.64
73551;BME280;61816;53.582;10.096;2023-04-21T09:04:30;54383.06;;;-144.73;67.66
73551;BME280;61816;53.582;10.096;2023-04-21T09:06:55;54374.84;;;-144.73;65.70
73551;BME280;61816;53.582;10.096;2023-04-21T09:09:21;54366.66;;;-144.73;63.58
73551;BME280;61816;53.582;10.096;2023-04-21T09:11:54;54366.66;;;-144.73;64.31
73551;BME280;61816;53.582;10.096;2023-04-21T09:14:21;54362.53;;;-144.73;64.11
73551;BME280;61816;53.582;10.096;2023-04-21T09:16:58;54360.50;;;-144.73;63.85
73551;BME280;61816;53.582;10.096;2023-04-21T09:19:26;54368.69;;;-144.73;64.26
73551;BME280;61816;53.582;10.096;2023-04-21T09:21:51;54387.19;;;-144.73;63.15
73551;BME280;61816;53.582;10.096;2023-04-21T09:24:17;54370.75;;;-144.73;62.56
73551;BME280;61816;53.582;10.096;2023-04-21T09:26:42;54389.22;;;-144.73;62.62
73551;BME280;61816;53.582;10.096;2023-04-21T09:29:07;54342.03;;;-144.73;62.66
73551;BME280;61816;53.582;10.096;2023-04-21T09:31:34;54376.91;;;-144.73;62.08
73551;BME280;61816;53.582;10.096;2023-04-21T09:34:00;54321.50;;;-144.73;62.24
73551;BME280;61816;53.582;10.096;2023-04-21T09:36:27;54387.19;;;-144.73;61.56
73551;BME280;61816;53.582;10.096;2023-04-21T09:41:19;54383.06;;;-144.73;60.14
73551;BME280;61816;53.582;10.096;2023-04-21T09:43:44;54346.13;;;-144.73;60.18
73551;BME280;61816;53.582;10.096;2023-04-21T09:46:11;54350.22;;;-144.73;59.55
73551;BME280;61816;53.582;10.096;2023-04-21T09:48:39;54305.06;;;-144.73;60.09
73551;BME280;61816;53.582;10.096;2023-04-21T09:51:07;54381.00;;;-144.73;59.87
73551;BME280;61816;53.582;10.096;2023-04-21T09:53:33;54368.69;;;-144.73;58.69
73551;BME280;61816;53.582;10.096;2023-04-21T09:56:03;54329.72;;;-144.73;58.75
73551;BME280;61816;53.582;10.096;2023-04-21T09:58:33;54395.38;;;-144.73;58.06
73551;BME280;61816;53.582;10.096;2023-04-21T10:01:02;54337.91;;;-144.73;56.72
73551;BME280;61816;53.582;10.096;2023-04-21T10:03:29;54321.50;;;-144.73;56.98
73551;BME280;61816;53.582;10.096;2023-04-21T10:05:55;54342.03;;;-144.73;54.47
73551;BME280;61816;53.582;10.096;2023-04-21T10:08:21;54362.53;;;-144.73;53.61
73551;BME280;61816;53.582;10.096;2023-04-21T10:10:47;54346.13;;;-144.73;52.74
73551;BME280;61816;53.582;10.096;2023-04-21T10:13:13;54333.81;;;-144.73;52.99
73551;BME280;61816;53.582;10.096;2023-04-21T10:15:40;54333.81;;;-144.73;52.93
73551;BME280;61816;53.582;10.096;2023-04-21T10:18:16;54342.03;;;-144.73;52.40
73551;BME280;61816;53.582;10.096;2023-04-21T10:21:00;54333.81;;;-144.73;53.58
73551;BME280;61816;53.582;10.096;2023-04-21T10:23:43;54342.03;;;-144.73;54.15
73551;BME280;61816;53.582;10.096;2023-04-21T10:26:16;54364.59;;;-144.73;54.42
73551;BME280;61816;53.582;10.096;2023-04-21T10:28:42;54342.03;;;-144.73;54.72
73551;BME280;61816;53.582;10.096;2023-04-21T10:37:17;54333.81;;;-144.73;53.62
73551;BME280;61816;53.582;10.096;2023-04-21T10:39:29;54350.22;;;-144.73;52.73
73551;BME280;61816;53.582;10.096;2023-04-21T10:41:57;54362.53;;;-144.73;52.73
73551;BME280;61816;53.582;10.096;2023-04-21T10:44:23;54374.84;;;-144.73;52.18
73551;BME280;61816;53.582;10.096;2023-04-21T10:46:50;54370.75;;;-144.73;51.87
73551;BME280;61816;53.582;10.096;2023-04-21T10:54:40;54374.84;;;-144.73;52.83
73551;BME280;61816;53.582;10.096;2023-04-21T10:57:08;54354.34;;;-144.73;49.90
73551;BME280;61816;53.582;10.096;2023-04-21T10:59:34;54313.28;;;-144.73;49.07
73551;BME280;61816;53.582;10.096;2023-04-21T11:02:14;54378.97;;;-144.73;47.99
73551;BME280;61816;53.582;10.096;2023-04-21T11:04:40;54329.72;;;-144.73;49.29
73551;BME280;61816;53.582;10.096;2023-04-21T11:09:38;54329.72;;;-144.73;48.58
73551;BME280;61816;53.582;10.096;2023-04-21T11:12:14;54305.06;;;-144.73;48.30
73551;BME280;61816;53.582;10.096;2023-04-21T11:14:44;54339.97;;;-144.73;48.05
73551;BME280;61816;53.582;10.096;2023-04-21T11:17:17;54313.28;;;-144.73;47.52
73551;BME280;61816;53.582;10.096;2023-04-21T11:19:48;54323.53;;;-144.73;46.37
73551;BME280;61816;53.582;10.096;2023-04-21T11:22:15;54305.06;;;-144.73;46.61
73551;BME280;61816;53.582;10.096;2023-04-21T11:24:45;54321.50;;;-144.73;43.44
73551;BME280;61816;53.582;10.096;2023-04-21T11:27:11;54346.13;;;-144.73;43.04
73551;BME280;61816;53.582;10.096;2023-04-21T11:29:39;54325.59;;;-144.73;43.29
73551;BME280;61816;53.582;10.096;2023-04-21T11:32:05;54344.06;;;-144.73;43.87
73551;BME280;61816;53.582;10.096;2023-04-21T11:34:31;54321.50;;;-144.73;41.21
73551;BME280;61816;53.582;10.096;2023-04-21T11:36:56;54323.53;;;-144.73;40.91
73551;BME280;61816;53.582;10.096;2023-04-21T11:39:21;54335.88;;;-144.73;39.78
73551;BME280;61816;53.582;10.096;2023-04-21T11:41:50;54350.22;;;-144.73;39.88
73551;BME280;61816;53.582;10.096;2023-04-21T11:46:59;54309.19;;;-144.73;38.81
73551;BME280;61816;53.582;10.096;2023-04-21T11:49:25;54284.56;;;-144.73;37.97
73551;BME280;61816;53.582;10.096;2023-04-21T11:51:53;54292.75;;;-144.73;37.45
73551;BME280;61816;53.582;10.096;2023-04-21T11:54:19;54300.97;;;-144.73;38.17
73551;BME280;61816;53.582;10.096;2023-04-21T11:56:47;54333.81;;;-144.73;37.56
73551;BME280;61816;53.582;10.096;2023-04-21T11:59:14;54321.50;;;-144.73;37.03
73551;BME280;61816;53.582;10.096;2023-04-21T12:01:52;54300.97;;;-144.73;36.95
73551;BME280;61816;53.582;10.096;2023-04-21T12:04:22;54288.66;;;-144.73;35.67
73551;BME280;61816;53.582;10.096;2023-04-21T12:07:01;54358.44;;;-144.73;36.60
73551;BME280;61816;53.582;10.096;2023-04-21T12:09:27;54311.22;;;-144.73;36.02
73551;BME280;61816;53.582;10.096;2023-04-21T12:11:55;54317.38;;;-144.73;36.25
73551;BME280;61816;53.582;10.096;2023-04-21T12:14:23;54284.56;;;-144.73;36.54
73551;BME280;61816;53.582;10.096;2023-04-21T12:16:51;54350.22;;;-144.73;36.47
73551;BME280;61816;53.582;10.096;2023-04-21T12:19:42;54346.13;;;-144.73;36.39
73551;BME280;61816;53.582;10.096;2023-04-21T12:22:13;54366.66;;;-144.73;36.69
73551;BME280;61816;53.582;10.096;2023-04-21T12:24:39;54309.19;;;-144.73;36.65
73551;BME280;61816;53.582;10.096;2023-04-21T12:27:05;54311.22;;;-144.73;36.20
73551;BME280;61816;53.582;10.096;2023-04-21T12:29:31;54337.91;;;-144.73;36.01
73551;BME280;61816;53.582;10.096;2023-04-21T12:31:56;54280.44;;;-144.73;35.59
73551;BME280;61816;53.582;10.096;2023-04-21T12:34:21;54284.56;;;-144.73;35.59
73551;BME280;61816;53.582;10.096;2023-04-21T12:36:47;54298.91;;;-144.73;34.94
73551;BME280;61816;53.582;10.096;2023-04-21T12:39:12;54300.97;;;-144.73;35.50
73551;BME280;61816;53.582;10.096;2023-04-21T12:41:39;54300.97;;;-144.73;33.56
73551;BME280;61816;53.582;10.096;2023-04-21T12:44:05;54329.72;;;-144.73;33.21